Troy, Alabama
Current Conditions -  °F | °C
As of 9:53 AM on Saturday 25 Oct 2014 (Local Time) from KTOI Reporting Station
Clear Clear  
Wind Chill: 19°   Ceiling: Unl
Heat Index: 19°   Visibility: 10mi
Dew Point:   Wind: 3mph
Humidity: 51%   Direction: NA
Pressure: 30.11"   Gusts: NA
Location:  31.81°N, 85.97°W
Report Text: KTOI 251453Z AUTO VRB03KT 10SM CLR 19/09 A3011 RMK AO2 SLP194 T01940089 50008
Loading
Personal Weather Stations






























Interactive Weather Map
Tropical Storm Tracking
New forecast layout! Learn more

10-Day Weather Forecast

Advertisements
Track Severe Weather on mobile